Dupo, Illinois
Current Conditions -  °F | °C
As of 7:53 PM on Monday 24 Nov 2014 (Local Time) from KCPS Reporting Station
Overcast Overcast  
Wind Chill: 35°   Ceiling: 8500
Heat Index: 40°   Visibility: 10mi
Dew Point: 30°   Wind: 7mph
Humidity: 68%   Direction: 290°WNW
Pressure: 29.95"   Gusts: NA
Location:  38.52°N, 90.21°W
Report Text: KCPS 250153Z 29006KT 10SM OVC085 04/M01 A2995 RMK AO2 SLP144 T00441011
Loading
Personal Weather Stations






























Interactive Weather Map New forecast layout! Learn more

10-Day Weather Forecast

Advertisements
Track Severe Weather on mobile